Latest Weather Observations for Leinster

IDW60801

Issued at 1:13 pm WST Saturday 10 December 2022 (issued every 10 minutes, with the page automatically refreshed every 10 minutes)

About weather observations | Map of weather stations | Latest weather observations for WA | Other Formats
Station Details ID: 012314 Name: LEINSTER AERO Lat: -27.84 Lon: 120.70 Height: 497.0 m
Data from the previous 72 hours. | See also: Recent months at Leinster
Date/Time
WST
Temp
°C
App
Temp
°C
Dew
Point
°C
Rel
Hum
%
Delta-T
°C
Wind Press
QNH
hPa
Press
MSL
hPa
Rain since
9am
mm
Dir  Spd
km/h
Gust
km/h
Spd
kts
Gust
kts
10/01:00pm 33.1 29.1 4.8 17 15.3 W 15 22 8 12 1011.6 1008.1 0.0
10/12:30pm 33.3 28.5 5.8 18 15.1 SSW 20 33 11 18 1012.1 1008.5 0.0
10/12:00pm 32.7 29.5 6.8 20 14.4 SSW 13 24 7 13 1012.3 1008.7 0.0
10/11:30am 32.1 28.7 7.7 22 13.7 SSW 15 24 8 13 1012.7 1009.1 0.0
10/11:00am 31.4 27.7 7.8 23 13.3 WSW 17 28 9 15 1012.9 1009.3 0.0
10/10:30am 31.1 28.8 7.5 23 13.2 SE 9 19 5 10 1013.1 1009.5 0.0
10/10:00am 30.0 27.2 8.4 26 12.2 SSW 13 22 7 12 1013.3 1009.8 0.0
10/09:30am 30.2 27.0 8.6 26 12.2 SSE 15 28 8 15 1013.3 1009.8 0.0
10/09:00am 28.8 25.2 8.5 28 11.4 S 17 24 9 13 1013.4 1009.9 0.0
10/08:30am 27.1 23.7 9.0 32 10.1 SSE 17 24 9 13 1013.5 1010.0 0.0
10/08:00am 26.0 22.1 8.5 33 9.7 S 19 28 10 15 1013.4 1009.9 0.0
10/07:30am 25.1 20.9 7.3 32 9.6 S 19 24 10 13 1013.4 1009.9 0.0
10/07:00am 24.5 19.5 4.8 28 10.1 S 20 26 11 14 1013.3 1009.8 0.0
10/06:30am 23.5 18.2 2.9 26 10.1 SSW 20 28 11 15 1013.1 1009.5 0.0
10/06:00am 23.2 17.7 2.1 25 10.2 SSW 20 28 11 15 1012.7 1009.1 0.0
10/05:30am 22.9 17.6 1.9 25 10.1 SSW 19 24 10 13 1012.4 1008.8 0.0
10/05:00am 22.8 18.6 1.8 25 10.1 SSW 13 19 7 10 1012.0 1008.4 0.0
10/04:30am 23.2 18.6 1.5 24 10.4 SSW 15 20 8 11 1011.7 1008.2 0.0
10/04:00am 23.5 19.3 1.8 24 10.5 SSW 13 17 7 9 1011.5 1008.0 0.0
10/03:30am 24.0 20.2 1.6 23 10.8 SW 11 15 6 8 1011.2 1007.6 0.0
10/03:00am 24.4 20.6 1.9 23 11.0 SW 11 15 6 8 1010.9 1007.3 0.0
10/02:30am 25.2 21.1 2.0 22 11.4 SSW 13 17 7 9 1010.6 1007.0 0.0
10/02:00am 25.9 21.1 2.6 22 11.6 SSW 17 22 9 12 1010.5 1006.9 0.0
10/01:30am 26.5 21.1 2.4 21 12.0 SSW 20 32 11 17 1010.3 1006.7 0.0
10/01:00am 27.0 21.3 2.8 21 12.2 SSW 22 32 12 17 1010.2 1006.6 0.0
10/12:30am 27.5 21.9 3.2 21 12.4 SSW 22 30 12 16 1010.1 1006.5 0.0
10/12:00am 28.1 22.5 3.7 21 12.6 SSW 22 32 12 17 1010.0 1006.4 0.0
 
Date/Time
WST
Temp
°C
App
Temp
°C
Dew
Point
°C
Rel
Hum
%
Delta-T
°C
Wind Press
QNH
hPa
Press
MSL
hPa
Rain since
9am
mm
Dir  Spd
km/h
Gust
km/h
Spd
kts
Gust
kts
09/11:30pm 28.6 22.6 3.5 20 12.9 SW 24 32 13 17 1010.0 1006.4 0.0
09/11:00pm 29.3 23.0 4.0 20 13.2 SW 26 35 14 19 1010.0 1006.4 0.0
09/10:30pm 29.8 25.5 5.1 21 13.2 SW 17 24 9 13 1010.0 1006.4 0.0
09/10:00pm 30.2 26.2 4.8 20 13.5 SW 15 24 8 13 1009.8 1006.2 0.0
09/09:30pm 30.9 25.9 4.6 19 14.0 SW 20 28 11 15 1009.6 1006.1 0.0
09/09:00pm 31.5 26.4 4.3 18 14.5 SW 20 32 11 17 1009.3 1005.7 0.0
09/08:30pm 32.3 27.1 3.3 16 15.2 WSW 20 32 11 17 1008.9 1005.3 0.0
09/08:00pm 33.0 28.5 2.0 14 16.0 W 15 20 8 11 1008.4 1004.8 0.0
09/07:30pm 33.7 28.3 1.5 13 16.5 W 19 26 10 14 1008.1 1004.5 0.0
09/07:00pm 34.3 28.4 2.0 13 16.8 W 22 32 12 17 1007.8 1004.2 0.0
09/06:30pm 35.1 28.8 1.5 12 17.4 W 24 39 13 21 1007.3 1003.7 0.0
09/06:00pm 35.8 29.4 0.8 11 18.0 W 24 43 13 23 1006.9 1003.3 0.0
09/05:30pm 36.7 30.8 1.5 11 18.4 W 22 35 12 19 1006.6 1003.0 0.0
09/05:00pm 36.8 31.2 1.5 11 18.5 W 20 32 11 17 1006.3 1002.7 0.0
09/04:30pm 36.7 29.6 1.5 11 18.4 W 28 39 15 21 1006.4 1002.8 0.0
09/04:00pm 36.7 28.9 1.5 11 18.4 W 32 44 17 24 1006.4 1002.8 0.0
09/03:30pm 37.7 31.5 2.2 11 18.8 W 24 39 13 21 1006.6 1003.0 0.0
09/03:00pm 36.7 29.8 2.7 12 18.1 W 28 41 15 22 1007.1 1003.5 0.0
09/02:30pm 36.7 31.5 3.8 13 17.8 NW 20 37 11 20 1007.7 1004.0 0.0
09/02:00pm 35.7 30.6 4.1 14 17.1 W 20 37 11 20 1008.0 1004.4 0.0
09/01:30pm 35.6 30.7 4.0 14 17.1 W 19 28 10 15 1008.3 1004.7 0.0
09/01:00pm 34.8 30.0 4.4 15 16.5 WNW 19 32 10 17 1008.5 1004.9 0.0
09/12:30pm 34.0 28.4 3.7 15 16.1 WSW 22 35 12 19 1008.9 1005.3 0.0
09/12:00pm 33.1 28.7 6.4 19 14.8 SW 19 28 10 15 1009.3 1005.7 0.0
09/11:30am 32.8 29.7 5.4 18 14.9 SW 11 28 6 15 1009.6 1006.1 0.0
09/11:00am 32.3 28.6 6.5 20 14.3 WSW 15 28 8 15 1009.9 1006.3 0.0
09/10:30am 31.0 28.5 8.1 24 12.9 WSW 11 17 6 9 1010.0 1006.4 0.0
09/10:00am 30.5 28.4 8.3 25 12.5 SSE 9 17 5 9 1010.2 1006.6 0.0
09/09:30am 28.9 26.9 8.6 28 11.4 SSW 9 15 5 8 1010.3 1006.7 0.0
09/09:00am 27.5 25.2 8.9 31 10.4 S 11 17 6 9 1010.3 1006.7 0.0
09/08:30am 27.1 24.2 9.5 33 9.9 S 15 19 8 10 1010.5 1006.9 0.0
09/08:00am 26.0 23.1 9.8 36 9.2 S 15 20 8 11 1010.3 1006.7 0.0
09/07:30am 24.9 21.7 10.0 39 8.4 SSW 17 24 9 13 1010.2 1006.6 0.0
09/07:00am 24.5 20.4 10.0 40 8.2 SSW 22 30 12 16 1009.9 1006.3 0.0
09/06:30am 23.5 19.8 10.2 43 7.5 S 20 28 11 15 1009.5 1005.9 0.0
09/06:00am 23.0 19.8 9.8 43 7.4 SSW 17 24 9 13 1009.4 1005.8 0.0
09/05:30am 22.4 18.8 8.5 41 7.5 SSW 17 22 9 12 1009.1 1005.5 0.0
09/05:00am 22.2 19.0 6.8 37 8.1 SW 13 17 7 9 1009.0 1005.4 0.0
09/04:30am 22.8 19.1 6.1 34 8.7 SW 15 22 8 12 1008.7 1005.1 0.0
09/04:00am 23.2 19.3 5.2 31 9.3 SW 15 17 8 9 1008.4 1004.8 0.0
09/03:30am 23.6 19.9 4.5 29 9.7 SW 13 19 7 10 1008.1 1004.5 0.0
09/03:00am 23.8 20.1 4.2 28 9.9 W 13 17 7 9 1007.9 1004.3 0.0
09/02:30am 24.0 20.6 3.9 27 10.1 WNW 11 15 6 8 1007.7 1004.0 0.0
09/02:00am 24.7 21.3 3.9 26 10.5 W 11 15 6 8 1007.6 1003.9 0.0
09/01:30am 24.0 21.0 3.9 27 10.1 NW 9 11 5 6 1007.6 1003.9 0.0
09/01:00am 24.5 21.8 3.8 26 10.5 W 7 9 4 5 1007.4 1003.8 0.0
09/12:30am 25.3 22.3 3.9 25 10.9 W 9 13 5 7 1007.6 1003.9 0.0
09/12:00am 26.1 22.7 4.0 24 11.3 WSW 11 15 6 8 1007.8 1004.2 0.0
 
Date/Time
WST
Temp
°C
App
Temp
°C
Dew
Point
°C
Rel
Hum
%
Delta-T
°C
Wind Press
QNH
hPa
Press
MSL
hPa
Rain since
9am
mm
Dir  Spd
km/h
Gust
km/h
Spd
kts
Gust
kts
08/11:30pm 26.7 23.3 3.9 23 11.7 W 11 15 6 8 1008.0 1004.4 0.0
08/11:00pm 27.8 24.1 4.2 22 12.3 WSW 13 17 7 9 1008.2 1004.6 0.0
08/10:30pm 28.5 24.7 4.1 21 12.7 W 13 15 7 8 1008.5 1004.9 0.0
08/10:00pm 29.0 25.4 3.1 19 13.3 W 11 15 6 8 1008.6 1005.0 0.0
08/09:30pm 29.1 25.8 2.4 18 13.5 WNW 9 13 5 7 1008.6 1005.0 0.0
08/09:00pm 29.9 26.6 2.2 17 14.1 W 9 13 5 7 1008.4 1004.8 0.0
08/08:30pm 31.0 26.9 2.3 16 14.7 W 13 19 7 10 1008.0 1004.4 0.0
08/08:00pm 31.7 27.5 1.9 15 15.3 W 13 19 7 10 1007.6 1003.9 0.0
08/07:30pm 32.6 27.5 0.6 13 16.1 W 17 22 9 12 1007.1 1003.5 0.0
08/07:00pm 33.4 27.8 0.1 12 16.7 W 19 26 10 14 1006.6 1003.0 0.0
08/06:30pm 34.4 28.2 -0.3 11 17.4 WNW 22 35 12 19 1006.2 1002.6 0.0
08/06:00pm 35.3 27.5 -0.9 10 18.1 WNW 30 44 16 24 1005.7 1002.0 0.0
08/05:30pm 35.9 27.6 -1.9 9 18.6 WNW 32 46 17 25 1005.2 1001.6 0.0
08/05:00pm 36.4 28.9 -1.5 9 18.9 WNW 28 43 15 23 1005.0 1001.4 0.0
08/04:30pm 36.8 28.6 -1.2 9 19.0 WNW 32 44 17 24 1005.0 1001.4 0.0
08/04:00pm 37.0 28.2 -1.1 9 19.2 WNW 35 54 19 29 1005.1 1001.5 0.0
08/03:32pm 37.5 28.8 -0.7 9 19.4 NW 35 54 19 29 1005.2 1001.6 0.0
08/03:30pm 36.6 27.2 0.1 10 18.6 NW 39 54 21 29 1005.3 1001.7 0.0
08/03:13pm 37.3 29.3 0.6 10 19.0 WNW 32 52 17 28 1005.3 1001.7 0.0
08/03:00pm 36.7 28.7 0.1 10 18.8 WNW 32 46 17 25 1005.6 1001.9 0.0
08/02:30pm 37.3 28.4 0.6 10 19.0 WNW 37 56 20 30 1005.7 1002.0 0.0
08/02:01pm 37.5 29.9 0.7 10 19.1 WNW 30 48 16 26 1005.9 1002.2 0.0
08/02:00pm 37.9 30.0 1.0 10 19.3 WNW 32 48 17 26 1005.9 1002.2 0.0
08/01:30pm 37.9 30.0 1.0 10 19.3 WNW 32 54 17 29 1006.1 1002.5 0.0
08/01:00pm 36.9 28.3 0.3 10 18.8 WNW 35 59 19 32 1006.3 1002.7 0.0
08/12:49pm 37.8 29.3 1.0 10 19.2 WNW 35 54 19 29 1006.4 1002.8 0.0
08/12:30pm 37.7 29.4 2.2 11 18.8 W 35 52 19 28 1006.5 1002.9 0.0
08/12:00pm 37.3 29.5 1.9 11 18.7 WNW 32 50 17 27 1006.7 1003.1 0.0
08/11:30am 36.7 30.0 3.8 13 17.8 WNW 28 52 15 28 1006.8 1003.2 0.0
08/11:00am 35.7 30.2 6.0 16 16.6 WNW 24 37 13 20 1007.1 1003.5 0.0
08/10:30am 34.8 29.7 6.2 17 15.9 WNW 22 41 12 22 1007.3 1003.7 0.0
08/10:00am 34.1 30.2 10.7 24 13.9 WNW 22 35 12 19 1007.6 1003.9 0.0
08/09:30am 32.6 29.2 11.2 27 12.7 WNW 20 35 11 19 1007.8 1004.2 0.0
08/09:00am 32.3 29.2 11.5 28 12.4 NW 19 26 10 14 1007.9 1004.3 0.0
08/08:30am 31.5 28.6 12.8 32 11.4 NNW 20 32 11 17 1008.1 1004.5 0.0
08/08:00am 30.6 27.8 12.5 33 10.9 N 19 28 10 15 1008.2 1004.6 0.0
08/07:30am 28.6 24.5 11.6 34 10.0 NNE 24 30 13 16 1008.2 1004.6 0.0
08/07:00am 27.7 24.3 11.3 36 9.6 NNE 20 30 11 16 1008.0 1004.4 0.0
08/06:30am 26.7 23.9 11.2 38 9.0 NNE 17 24 9 13 1007.7 1004.0 0.0
08/06:00am 25.3 23.4 11.8 43 7.9 NE 13 19 7 10 1007.4 1003.8 0.0
08/05:30am 24.1 21.8 11.8 46 7.1 NE 15 19 8 10 1007.1 1003.5 0.0
08/05:00am 23.7 22.0 12.4 49 6.6 ENE 13 17 7 9 1007.0 1003.4 0.0
08/04:30am 23.6 21.9 12.6 50 6.4 ENE 13 17 7 9 1006.7 1003.1 0.0
08/04:00am 23.7 23.3 12.4 49 6.6 E 6 7 3 4 1006.8 1003.2 0.0
08/03:30am 24.3 24.0 12.6 48 6.9 ENE 6 7 3 4 1006.8 1003.2 0.0
08/03:00am 25.0 23.6 12.2 44 7.5 NE 11 17 6 9 1006.8 1003.2 0.0
08/02:30am 25.5 22.3 11.3 41 8.2 NE 19 26 10 14 1006.8 1003.2 0.0
08/02:00am 26.1 22.5 10.7 38 8.9 NE 20 30 11 16 1006.7 1003.1 0.0
08/01:30am 26.6 22.2 10.3 36 9.3 NE 24 35 13 19 1006.8 1003.2 0.0
08/01:00am 26.5 21.8 10.6 37 9.2 ENE 26 39 14 21 1006.8 1003.2 0.0
08/12:30am 26.7 21.2 10.4 36 9.3 ENE 30 43 16 23 1007.0 1003.4 0.0
08/12:00am 27.3 22.2 10.5 35 9.7 NE 28 39 15 21 1006.6 1003.0 0.0
 
Date/Time
WST
Temp
°C
App
Temp
°C
Dew
Point
°C
Rel
Hum
%
Delta-T
°C
Wind Press
QNH
hPa
Press
MSL
hPa
Rain since
9am
mm
Dir  Spd
km/h
Gust
km/h
Spd
kts
Gust
kts
07/11:30pm 27.1 22.8 12.0 39 8.9 NE 26 43 14 23 1006.5 1002.9 0.0
07/11:00pm 27.5 22.8 11.9 38 9.2 NE 28 41 15 22 1006.6 1003.0 0.0
07/10:35pm 29.2 24.2 10.8 32 10.7 NE 28 46 15 25 1007.9 1004.3 0.0
07/10:30pm 29.8 26.0 9.9 29 11.5 NE 20 35 11 19 1008.1 1004.5 0.0
07/10:00pm 30.2 24.9 9.7 28 11.8 ENE 28 39 15 21 1007.1 1003.5 0.0
07/09:30pm 30.4 25.8 9.8 28 11.9 ENE 24 35 13 19 1007.0 1003.4 0.0
07/09:00pm 30.1 26.9 11.1 31 11.2 E 19 30 10 16 1007.0 1003.4 0.0
07/08:30pm 32.1 28.1 9.0 24 13.3 E 20 33 11 18 1006.8 1003.2 0.0
07/08:00pm 32.1 28.8 9.6 25 13.1 ENE 17 22 9 12 1007.1 1003.5 0.0
07/07:30pm 32.0 28.5 10.1 26 12.8 NE 19 24 10 13 1006.7 1003.1 0.0
07/07:00pm 33.3 28.6 9.4 23 13.9 NNE 24 33 13 18 1007.7 1004.0 0.0
07/06:30pm 34.4 29.3 7.5 19 15.2 E 24 33 13 18 1006.3 1002.7 0.0
07/06:00pm 35.0 30.1 7.1 18 15.8 ENE 22 32 12 17 1005.9 1002.2 0.0
07/05:30pm 36.2 31.8 7.3 17 16.5 ENE 20 35 11 19 1005.8 1002.1 0.0
07/05:00pm 35.9 31.0 7.0 17 16.4 ENE 22 37 12 20 1005.8 1002.1 0.0
07/04:30pm 36.3 30.4 7.4 17 16.5 ENE 28 35 15 19 1005.7 1002.0 0.0
07/04:00pm 36.2 30.6 7.3 17 16.5 NE 26 33 14 18 1006.0 1002.4 0.0
07/03:30pm 36.3 30.4 7.4 17 16.5 ENE 28 43 15 23 1006.5 1002.9 0.0
07/03:00pm 36.1 31.1 8.0 18 16.2 ENE 24 44 13 24 1007.3 1003.7 0.0
07/02:30pm 34.4 29.3 7.5 19 15.2 ENE 24 39 13 21 1007.8 1004.2 0.0
07/02:00pm 34.6 30.1 8.4 20 15.1 E 22 32 12 17 1008.4 1004.8 0.0
07/01:30pm 33.9 30.0 8.5 21 14.6 E 19 35 10 19 1008.8 1005.2 0.0

Other formats

Comma delimited format used in spreadsheet applications
http://www.bom.gov.au/fwo/IDW60801/IDW60801.95448.axf

JavaScript Object Notation format (JSON) in row-major order
http://www.bom.gov.au/fwo/IDW60801/IDW60801.95448.json

Data quality

Most of these data are generated automatically and are frequently updated. Quality checks on data are not normally performed. It is possible for incorrect values to appear. Refer to information at About Latest Weather Observations and please check the disclaimer before using these data.